sensor_id;sensor_type;location;lat;lon;timestamp;P1;durP1;ratioP1;P2;durP2;ratioP2
71777;SDS011;59609;52.430;4.668;2023-04-07T00:00:50;8.43;;;4.03;;
71777;SDS011;59609;52.430;4.668;2023-04-07T00:03:15;13.60;;;4.28;;
71777;SDS011;59609;52.430;4.668;2023-04-07T00:05:41;7.90;;;3.85;;
71777;SDS011;59609;52.430;4.668;2023-04-07T00:08:06;13.23;;;4.78;;
71777;SDS011;59609;52.430;4.668;2023-04-07T00:10:32;11.95;;;3.67;;
71777;SDS011;59609;52.430;4.668;2023-04-07T00:12:57;9.07;;;3.33;;
71777;SDS011;59609;52.430;4.668;2023-04-07T00:15:22;16.08;;;3.83;;
71777;SDS011;59609;52.430;4.668;2023-04-07T00:17:48;10.45;;;3.47;;
71777;SDS011;59609;52.430;4.668;2023-04-07T00:20:14;8.50;;;3.20;;
71777;SDS011;59609;52.430;4.668;2023-04-07T00:22:39;12.15;;;3.55;;
71777;SDS011;59609;52.430;4.668;2023-04-07T00:25:05;6.15;;;3.25;;
71777;SDS011;59609;52.430;4.668;2023-04-07T00:27:30;10.85;;;3.22;;
71777;SDS011;59609;52.430;4.668;2023-04-07T00:29:56;16.77;;;3.70;;
71777;SDS011;59609;52.430;4.668;2023-04-07T00:32:21;21.42;;;4.13;;
71777;SDS011;59609;52.430;4.668;2023-04-07T00:34:47;14.38;;;3.63;;
71777;SDS011;59609;52.430;4.668;2023-04-07T00:37:12;11.07;;;3.72;;
71777;SDS011;59609;52.430;4.668;2023-04-07T00:39:37;12.82;;;2.65;;
71777;SDS011;59609;52.430;4.668;2023-04-07T00:42:03;8.27;;;3.35;;
71777;SDS011;59609;52.430;4.668;2023-04-07T00:44:32;11.50;;;3.05;;
71777;SDS011;59609;52.430;4.668;2023-04-07T00:46:57;11.32;;;2.70;;
71777;SDS011;59609;52.430;4.668;2023-04-07T00:49:23;16.50;;;3.38;;
71777;SDS011;59609;52.430;4.668;2023-04-07T00:51:50;11.75;;;3.40;;
71777;SDS011;59609;52.430;4.668;2023-04-07T00:54:16;11.52;;;3.22;;
71777;SDS011;59609;52.430;4.668;2023-04-07T00:56:42;11.38;;;3.58;;
71777;SDS011;59609;52.430;4.668;2023-04-07T00:59:08;12.25;;;3.85;;
71777;SDS011;59609;52.430;4.668;2023-04-07T01:01:39;18.75;;;4.00;;
71777;SDS011;59609;52.430;4.668;2023-04-07T01:07:17;12.80;;;3.35;;
71777;SDS011;59609;52.430;4.668;2023-04-07T01:09:57;13.57;;;3.10;;
71777;SDS011;59609;52.430;4.668;2023-04-07T01:12:37;6.65;;;2.67;;
71777;SDS011;59609;52.430;4.668;2023-04-07T01:15:09;15.18;;;3.47;;
71777;SDS011;59609;52.430;4.668;2023-04-07T01:17:36;15.02;;;3.55;;
71777;SDS011;59609;52.430;4.668;2023-04-07T01:20:06;14.07;;;3.95;;
71777;SDS011;59609;52.430;4.668;2023-04-07T01:22:42;13.80;;;3.42;;
71777;SDS011;59609;52.430;4.668;2023-04-07T01:30:29;8.65;;;4.32;;
71777;SDS011;59609;52.430;4.668;2023-04-07T01:32:57;13.13;;;3.92;;
71777;SDS011;59609;52.430;4.668;2023-04-07T01:35:25;13.18;;;2.88;;
71777;SDS011;59609;52.430;4.668;2023-04-07T01:37:53;15.98;;;4.40;;
71777;SDS011;59609;52.430;4.668;2023-04-07T01:40:20;13.50;;;3.42;;
71777;SDS011;59609;52.430;4.668;2023-04-07T01:42:45;14.48;;;3.53;;
71777;SDS011;59609;52.430;4.668;2023-04-07T01:45:12;10.82;;;3.65;;
71777;SDS011;59609;52.430;4.668;2023-04-07T01:47:40;22.08;;;3.60;;
71777;SDS011;59609;52.430;4.668;2023-04-07T01:50:06;10.88;;;4.15;;
71777;SDS011;59609;52.430;4.668;2023-04-07T01:52:33;15.27;;;3.88;;
71777;SDS011;59609;52.430;4.668;2023-04-07T01:55:00;12.38;;;3.25;;
71777;SDS011;59609;52.430;4.668;2023-04-07T01:57:25;10.77;;;3.30;;
71777;SDS011;59609;52.430;4.668;2023-04-07T01:59:51;10.70;;;3.63;;
71777;SDS011;59609;52.430;4.668;2023-04-07T02:02:17;12.23;;;3.55;;
71777;SDS011;59609;52.430;4.668;2023-04-07T02:04:59;18.42;;;3.50;;
71777;SDS011;59609;52.430;4.668;2023-04-07T02:07:39;7.82;;;2.75;;
71777;SDS011;59609;52.430;4.668;2023-04-07T02:10:10;14.15;;;3.10;;
71777;SDS011;59609;52.430;4.668;2023-04-07T02:12:39;10.48;;;3.08;;
71777;SDS011;59609;52.430;4.668;2023-04-07T02:15:07;13.70;;;3.20;;
71777;SDS011;59609;52.430;4.668;2023-04-07T02:17:37;12.45;;;3.70;;
71777;SDS011;59609;52.430;4.668;2023-04-07T02:20:08;12.23;;;3.67;;
71777;SDS011;59609;52.430;4.668;2023-04-07T02:22:39;14.02;;;3.80;;
71777;SDS011;59609;52.430;4.668;2023-04-07T02:27:47;11.10;;;4.43;;
71777;SDS011;59609;52.430;4.668;2023-04-07T02:30:12;15.90;;;5.63;;
71777;SDS011;59609;52.430;4.668;2023-04-07T02:32:38;10.52;;;5.65;;
71777;SDS011;59609;52.430;4.668;2023-04-07T02:35:04;11.95;;;6.22;;
71777;SDS011;59609;52.430;4.668;2023-04-07T02:37:30;9.38;;;4.53;;
71777;SDS011;59609;52.430;4.668;2023-04-07T02:39:55;14.07;;;6.03;;
71777;SDS011;59609;52.430;4.668;2023-04-07T02:42:21;11.60;;;4.75;;
71777;SDS011;59609;52.430;4.668;2023-04-07T02:44:46;10.98;;;4.00;;
71777;SDS011;59609;52.430;4.668;2023-04-07T02:47:11;13.57;;;5.13;;
71777;SDS011;59609;52.430;4.668;2023-04-07T02:49:37;10.48;;;4.70;;
71777;SDS011;59609;52.430;4.668;2023-04-07T02:52:02;19.42;;;6.57;;
71777;SDS011;59609;52.430;4.668;2023-04-07T02:54:27;16.13;;;6.13;;
71777;SDS011;59609;52.430;4.668;2023-04-07T02:56:53;11.07;;;4.93;;
71777;SDS011;59609;52.430;4.668;2023-04-07T02:59:18;10.38;;;4.47;;
71777;SDS011;59609;52.430;4.668;2023-04-07T03:01:43;14.77;;;4.40;;
71777;SDS011;59609;52.430;4.668;2023-04-07T03:04:09;8.13;;;4.18;;
71777;SDS011;59609;52.430;4.668;2023-04-07T03:06:34;12.38;;;4.90;;
71777;SDS011;59609;52.430;4.668;2023-04-07T03:09:00;17.02;;;5.55;;
71777;SDS011;59609;52.430;4.668;2023-04-07T03:11:25;20.90;;;4.85;;
71777;SDS011;59609;52.430;4.668;2023-04-07T03:13:51;12.13;;;5.20;;
71777;SDS011;59609;52.430;4.668;2023-04-07T03:16:16;17.63;;;5.20;;
71777;SDS011;59609;52.430;4.668;2023-04-07T03:18:41;15.57;;;5.90;;
71777;SDS011;59609;52.430;4.668;2023-04-07T03:21:07;12.10;;;5.03;;
71777;SDS011;59609;52.430;4.668;2023-04-07T03:23:32;12.35;;;5.20;;
71777;SDS011;59609;52.430;4.668;2023-04-07T03:25:58;13.32;;;4.18;;
71777;SDS011;59609;52.430;4.668;2023-04-07T03:28:23;13.55;;;4.85;;
71777;SDS011;59609;52.430;4.668;2023-04-07T03:30:48;12.75;;;4.43;;
71777;SDS011;59609;52.430;4.668;2023-04-07T03:33:14;14.23;;;4.43;;
71777;SDS011;59609;52.430;4.668;2023-04-07T03:35:39;7.55;;;3.38;;
71777;SDS011;59609;52.430;4.668;2023-04-07T03:38:06;13.15;;;4.32;;
71777;SDS011;59609;52.430;4.668;2023-04-07T03:40:31;10.68;;;3.55;;
71777;SDS011;59609;52.430;4.668;2023-04-07T03:42:57;7.70;;;3.33;;
71777;SDS011;59609;52.430;4.668;2023-04-07T03:45:23;7.97;;;3.42;;
71777;SDS011;59609;52.430;4.668;2023-04-07T03:47:48;9.32;;;4.57;;
71777;SDS011;59609;52.430;4.668;2023-04-07T03:50:13;14.75;;;4.72;;
71777;SDS011;59609;52.430;4.668;2023-04-07T03:52:39;12.35;;;4.03;;
71777;SDS011;59609;52.430;4.668;2023-04-07T03:55:05;15.32;;;5.18;;
71777;SDS011;59609;52.430;4.668;2023-04-07T03:57:31;7.95;;;3.20;;
71777;SDS011;59609;52.430;4.668;2023-04-07T03:59:57;12.32;;;4.43;;
71777;SDS011;59609;52.430;4.668;2023-04-07T04:02:22;11.10;;;5.75;;
71777;SDS011;59609;52.430;4.668;2023-04-07T04:04:47;9.00;;;4.15;;
71777;SDS011;59609;52.430;4.668;2023-04-07T04:07:13;8.55;;;3.65;;
71777;SDS011;59609;52.430;4.668;2023-04-07T04:09:38;12.00;;;3.90;;
71777;SDS011;59609;52.430;4.668;2023-04-07T04:12:04;8.45;;;3.90;;
71777;SDS011;59609;52.430;4.668;2023-04-07T04:14:29;9.48;;;4.03;;
71777;SDS011;59609;52.430;4.668;2023-04-07T04:16:54;13.20;;;4.97;;
71777;SDS011;59609;52.430;4.668;2023-04-07T04:19:20;13.68;;;3.90;;
71777;SDS011;59609;52.430;4.668;2023-04-07T04:21:45;17.75;;;4.70;;
71777;SDS011;59609;52.430;4.668;2023-04-07T04:24:10;12.00;;;4.20;;
71777;SDS011;59609;52.430;4.668;2023-04-07T04:26:36;16.88;;;5.18;;
71777;SDS011;59609;52.430;4.668;2023-04-07T04:29:01;15.45;;;4.57;;
71777;SDS011;59609;52.430;4.668;2023-04-07T04:31:27;10.98;;;3.40;;
71777;SDS011;59609;52.430;4.668;2023-04-07T04:33:52;10.13;;;4.20;;
71777;SDS011;59609;52.430;4.668;2023-04-07T04:36:18;7.65;;;3.47;;
71777;SDS011;59609;52.430;4.668;2023-04-07T04:38:43;8.80;;;3.33;;
71777;SDS011;59609;52.430;4.668;2023-04-07T04:41:09;15.63;;;4.30;;
71777;SDS011;59609;52.430;4.668;2023-04-07T04:43:34;11.50;;;4.20;;
71777;SDS011;59609;52.430;4.668;2023-04-07T04:46:00;12.38;;;4.28;;
71777;SDS011;59609;52.430;4.668;2023-04-07T04:48:25;11.23;;;3.85;;
71777;SDS011;59609;52.430;4.668;2023-04-07T04:50:52;10.68;;;3.50;;
71777;SDS011;59609;52.430;4.668;2023-04-07T04:53:17;15.05;;;4.47;;
71777;SDS011;59609;52.430;4.668;2023-04-07T04:55:43;10.82;;;3.67;;
71777;SDS011;59609;52.430;4.668;2023-04-07T04:58:11;18.45;;;4.47;;
71777;SDS011;59609;52.430;4.668;2023-04-07T05:00:36;13.15;;;4.90;;
71777;SDS011;59609;52.430;4.668;2023-04-07T05:03:02;16.10;;;4.50;;
71777;SDS011;59609;52.430;4.668;2023-04-07T05:05:28;10.95;;;5.25;;
71777;SDS011;59609;52.430;4.668;2023-04-07T05:07:53;11.38;;;4.00;;
71777;SDS011;59609;52.430;4.668;2023-04-07T05:10:18;18.90;;;4.80;;
71777;SDS011;59609;52.430;4.668;2023-04-07T05:12:44;14.95;;;4.88;;
71777;SDS011;59609;52.430;4.668;2023-04-07T05:15:09;22.00;;;5.13;;
71777;SDS011;59609;52.430;4.668;2023-04-07T05:17:35;12.55;;;4.45;;
71777;SDS011;59609;52.430;4.668;2023-04-07T05:20:01;19.92;;;4.85;;
71777;SDS011;59609;52.430;4.668;2023-04-07T05:22:27;13.23;;;3.78;;
71777;SDS011;59609;52.430;4.668;2023-04-07T05:24:52;14.55;;;3.72;;
71777;SDS011;59609;52.430;4.668;2023-04-07T05:27:17;16.35;;;4.78;;
71777;SDS011;59609;52.430;4.668;2023-04-07T05:29:43;17.58;;;4.93;;
71777;SDS011;59609;52.430;4.668;2023-04-07T05:32:08;16.67;;;3.75;;
71777;SDS011;59609;52.430;4.668;2023-04-07T05:34:33;15.57;;;4.85;;
71777;SDS011;59609;52.430;4.668;2023-04-07T05:36:59;11.40;;;4.15;;
71777;SDS011;59609;52.430;4.668;2023-04-07T05:39:24;16.88;;;3.30;;
71777;SDS011;59609;52.430;4.668;2023-04-07T05:41:50;14.40;;;5.00;;
71777;SDS011;59609;52.430;4.668;2023-04-07T05:44:15;15.10;;;3.90;;
71777;SDS011;59609;52.430;4.668;2023-04-07T05:46:41;17.48;;;4.65;;
71777;SDS011;59609;52.430;4.668;2023-04-07T05:49:06;9.73;;;3.70;;
71777;SDS011;59609;52.430;4.668;2023-04-07T05:51:31;11.75;;;3.10;;
71777;SDS011;59609;52.430;4.668;2023-04-07T05:53:59;11.98;;;3.92;;
71777;SDS011;59609;52.430;4.668;2023-04-07T05:56:27;17.58;;;3.63;;
71777;SDS011;59609;52.430;4.668;2023-04-07T05:58:52;12.82;;;3.92;;
71777;SDS011;59609;52.430;4.668;2023-04-07T06:01:17;9.10;;;2.88;;
71777;SDS011;59609;52.430;4.668;2023-04-07T06:03:43;11.45;;;2.70;;
71777;SDS011;59609;52.430;4.668;2023-04-07T06:06:08;13.32;;;2.70;;
71777;SDS011;59609;52.430;4.668;2023-04-07T06:08:34;6.18;;;2.10;;
71777;SDS011;59609;52.430;4.668;2023-04-07T06:11:00;5.50;;;4.25;;
71777;SDS011;59609;52.430;4.668;2023-04-07T06:13:25;7.05;;;3.80;;
71777;SDS011;59609;52.430;4.668;2023-04-07T06:15:51;5.55;;;4.13;;
71777;SDS011;59609;52.430;4.668;2023-04-07T06:18:19;18.17;;;3.60;;
71777;SDS011;59609;52.430;4.668;2023-04-07T06:20:45;6.70;;;3.10;;
71777;SDS011;59609;52.430;4.668;2023-04-07T06:23:10;5.28;;;1.42;;
71777;SDS011;59609;52.430;4.668;2023-04-07T06:25:36;9.63;;;2.90;;
71777;SDS011;59609;52.430;4.668;2023-04-07T06:28:01;5.43;;;3.75;;
71777;SDS011;59609;52.430;4.668;2023-04-07T06:30:27;6.72;;;2.58;;
71777;SDS011;59609;52.430;4.668;2023-04-07T06:32:52;7.35;;;3.08;;
71777;SDS011;59609;52.430;4.668;2023-04-07T06:35:17;9.50;;;4.13;;
71777;SDS011;59609;52.430;4.668;2023-04-07T06:37:43;9.98;;;4.07;;
71777;SDS011;59609;52.430;4.668;2023-04-07T06:40:08;15.40;;;6.10;;
71777;SDS011;59609;52.430;4.668;2023-04-07T06:42:34;5.60;;;4.80;;
71777;SDS011;59609;52.430;4.668;2023-04-07T06:44:59;6.40;;;4.43;;
71777;SDS011;59609;52.430;4.668;2023-04-07T06:47:25;4.75;;;4.32;;
71777;SDS011;59609;52.430;4.668;2023-04-07T06:49:50;5.80;;;4.00;;
71777;SDS011;59609;52.430;4.668;2023-04-07T06:52:15;9.73;;;4.63;;
71777;SDS011;59609;52.430;4.668;2023-04-07T06:54:41;13.25;;;5.13;;
71777;SDS011;59609;52.430;4.668;2023-04-07T06:57:07;10.45;;;3.83;;
71777;SDS011;59609;52.430;4.668;2023-04-07T06:59:36;8.20;;;4.35;;
71777;SDS011;59609;52.430;4.668;2023-04-07T07:02:02;6.68;;;4.35;;
71777;SDS011;59609;52.430;4.668;2023-04-07T07:04:31;11.23;;;5.22;;
71777;SDS011;59609;52.430;4.668;2023-04-07T07:06:57;12.45;;;4.97;;
71777;SDS011;59609;52.430;4.668;2023-04-07T07:09:22;5.80;;;3.72;;
71777;SDS011;59609;52.430;4.668;2023-04-07T07:11:48;7.47;;;3.53;;
71777;SDS011;59609;52.430;4.668;2023-04-07T07:14:13;7.15;;;4.78;;
71777;SDS011;59609;52.430;4.668;2023-04-07T07:16:38;6.25;;;4.70;;
71777;SDS011;59609;52.430;4.668;2023-04-07T07:19:05;8.95;;;4.40;;
71777;SDS011;59609;52.430;4.668;2023-04-07T07:21:30;9.48;;;4.97;;
71777;SDS011;59609;52.430;4.668;2023-04-07T07:23:56;6.07;;;4.38;;
71777;SDS011;59609;52.430;4.668;2023-04-07T07:26:21;4.90;;;4.03;;
71777;SDS011;59609;52.430;4.668;2023-04-07T07:28:47;4.28;;;2.67;;
71777;SDS011;59609;52.430;4.668;2023-04-07T07:31:12;11.25;;;4.40;;
71777;SDS011;59609;52.430;4.668;2023-04-07T07:33:39;8.75;;;4.50;;
71777;SDS011;59609;52.430;4.668;2023-04-07T07:36:07;5.65;;;2.90;;
71777;SDS011;59609;52.430;4.668;2023-04-07T07:38:33;10.77;;;4.80;;
71777;SDS011;59609;52.430;4.668;2023-04-07T07:40:59;7.20;;;4.60;;
71777;SDS011;59609;52.430;4.668;2023-04-07T07:43:24;11.75;;;5.53;;
71777;SDS011;59609;52.430;4.668;2023-04-07T07:45:50;10.05;;;4.13;;
71777;SDS011;59609;52.430;4.668;2023-04-07T07:48:15;10.15;;;5.55;;
71777;SDS011;59609;52.430;4.668;2023-04-07T07:50:40;14.98;;;5.15;;
71777;SDS011;59609;52.430;4.668;2023-04-07T07:53:08;8.98;;;5.20;;
71777;SDS011;59609;52.430;4.668;2023-04-07T07:55:33;6.82;;;4.68;;
71777;SDS011;59609;52.430;4.668;2023-04-07T07:57:59;7.35;;;5.03;;
71777;SDS011;59609;52.430;4.668;2023-04-07T08:00:24;9.02;;;4.95;;
71777;SDS011;59609;52.430;4.668;2023-04-07T08:02:50;10.90;;;4.65;;
71777;SDS011;59609;52.430;4.668;2023-04-07T08:05:15;6.50;;;4.75;;
71777;SDS011;59609;52.430;4.668;2023-04-07T08:07:40;8.88;;;4.53;;
71777;SDS011;59609;52.430;4.668;2023-04-07T08:10:07;10.45;;;3.63;;
71777;SDS011;59609;52.430;4.668;2023-04-07T08:12:32;8.18;;;4.78;;
71777;SDS011;59609;52.430;4.668;2023-04-07T08:14:58;9.05;;;4.78;;
71777;SDS011;59609;52.430;4.668;2023-04-07T08:17:23;9.90;;;5.45;;
71777;SDS011;59609;52.430;4.668;2023-04-07T08:19:51;10.63;;;5.65;;
71777;SDS011;59609;52.430;4.668;2023-04-07T08:22:16;11.35;;;4.43;;
71777;SDS011;59609;52.430;4.668;2023-04-07T08:24:45;11.57;;;4.65;;
71777;SDS011;59609;52.430;4.668;2023-04-07T08:27:11;11.55;;;4.22;;
71777;SDS011;59609;52.430;4.668;2023-04-07T08:29:37;6.03;;;4.38;;
71777;SDS011;59609;52.430;4.668;2023-04-07T08:32:02;13.40;;;4.65;;
71777;SDS011;59609;52.430;4.668;2023-04-07T08:34:27;11.43;;;4.03;;
71777;SDS011;59609;52.430;4.668;2023-04-07T08:36:53;8.20;;;4.32;;
71777;SDS011;59609;52.430;4.668;2023-04-07T08:39:18;14.25;;;4.25;;
71777;SDS011;59609;52.430;4.668;2023-04-07T08:41:43;8.75;;;3.92;;
71777;SDS011;59609;52.430;4.668;2023-04-07T08:44:11;12.65;;;4.60;;
71777;SDS011;59609;52.430;4.668;2023-04-07T08:46:38;9.65;;;4.38;;
71777;SDS011;59609;52.430;4.668;2023-04-07T08:49:07;8.95;;;5.13;;
71777;SDS011;59609;52.430;4.668;2023-04-07T08:51:34;12.45;;;5.50;;
71777;SDS011;59609;52.430;4.668;2023-04-07T08:56:31;10.68;;;3.70;;
71777;SDS011;59609;52.430;4.668;2023-04-07T08:58:58;8.55;;;4.28;;
71777;SDS011;59609;52.430;4.668;2023-04-07T09:01:25;11.50;;;5.25;;
71777;SDS011;59609;52.430;4.668;2023-04-07T09:03:51;10.38;;;5.55;;
71777;SDS011;59609;52.430;4.668;2023-04-07T09:06:17;12.40;;;4.82;;
71777;SDS011;59609;52.430;4.668;2023-04-07T09:08:43;12.75;;;3.58;;
71777;SDS011;59609;52.430;4.668;2023-04-07T09:11:08;16.08;;;4.90;;
71777;SDS011;59609;52.430;4.668;2023-04-07T09:13:34;10.60;;;3.72;;
71777;SDS011;59609;52.430;4.668;2023-04-07T09:16:01;7.57;;;4.25;;
71777;SDS011;59609;52.430;4.668;2023-04-07T09:18:27;7.63;;;4.78;;
71777;SDS011;59609;52.430;4.668;2023-04-07T09:20:53;13.35;;;4.47;;
71777;SDS011;59609;52.430;4.668;2023-04-07T09:23:26;9.18;;;4.13;;
71777;SDS011;59609;52.430;4.668;2023-04-07T09:25:59;14.32;;;4.43;;
71777;SDS011;59609;52.430;4.668;2023-04-07T09:28:45;12.90;;;4.43;;
71777;SDS011;59609;52.430;4.668;2023-04-07T09:31:12;12.57;;;5.05;;
71777;SDS011;59609;52.430;4.668;2023-04-07T09:33:37;8.40;;;3.63;;
71777;SDS011;59609;52.430;4.668;2023-04-07T09:36:04;9.07;;;3.20;;
71777;SDS011;59609;52.430;4.668;2023-04-07T09:38:34;14.20;;;3.92;;
71777;SDS011;59609;52.430;4.668;2023-04-07T09:41:09;13.88;;;3.50;;
71777;SDS011;59609;52.430;4.668;2023-04-07T09:43:36;9.60;;;3.65;;
71777;SDS011;59609;52.430;4.668;2023-04-07T09:48:39;6.75;;;3.72;;
71777;SDS011;59609;52.430;4.668;2023-04-07T09:51:09;8.57;;;4.03;;
71777;SDS011;59609;52.430;4.668;2023-04-07T09:56:17;11.32;;;3.83;;
71777;SDS011;59609;52.430;4.668;2023-04-07T09:58:45;16.10;;;4.80;;
71777;SDS011;59609;52.430;4.668;2023-04-07T10:01:12;10.40;;;4.13;;
71777;SDS011;59609;52.430;4.668;2023-04-07T10:03:38;7.15;;;3.95;;
71777;SDS011;59609;52.430;4.668;2023-04-07T10:06:04;12.48;;;2.88;;
71777;SDS011;59609;52.430;4.668;2023-04-07T10:08:32;11.38;;;4.88;;
71777;SDS011;59609;52.430;4.668;2023-04-07T10:10:59;16.05;;;4.97;;
71777;SDS011;59609;52.430;4.668;2023-04-07T10:13:28;8.07;;;3.40;;
71777;SDS011;59609;52.430;4.668;2023-04-07T10:15:55;6.25;;;3.13;;
71777;SDS011;59609;52.430;4.668;2023-04-07T10:18:25;12.25;;;4.75;;
71777;SDS011;59609;52.430;4.668;2023-04-07T10:20:54;12.10;;;4.43;;
71777;SDS011;59609;52.430;4.668;2023-04-07T10:23:22;13.52;;;5.38;;
71777;SDS011;59609;52.430;4.668;2023-04-07T10:25:52;13.65;;;5.28;;
71777;SDS011;59609;52.430;4.668;2023-04-07T10:28:20;19.02;;;4.82;;
71777;SDS011;59609;52.430;4.668;2023-04-07T10:30:49;12.52;;;4.22;;
71777;SDS011;59609;52.430;4.668;2023-04-07T10:33:15;12.75;;;4.63;;
71777;SDS011;59609;52.430;4.668;2023-04-07T10:38:27;15.80;;;5.22;;
71777;SDS011;59609;52.430;4.668;2023-04-07T10:40:53;12.32;;;5.80;;
71777;SDS011;59609;52.430;4.668;2023-04-07T10:43:39;11.77;;;5.25;;
71777;SDS011;59609;52.430;4.668;2023-04-07T10:46:05;6.90;;;4.72;;
71777;SDS011;59609;52.430;4.668;2023-04-07T10:48:31;12.68;;;5.22;;
71777;SDS011;59609;52.430;4.668;2023-04-07T10:53:29;16.50;;;5.80;;
71777;SDS011;59609;52.430;4.668;2023-04-07T10:55:55;16.38;;;5.45;;
71777;SDS011;59609;52.430;4.668;2023-04-07T10:58:22;17.02;;;5.97;;
71777;SDS011;59609;52.430;4.668;2023-04-07T11:03:39;13.40;;;4.70;;
71777;SDS011;59609;52.430;4.668;2023-04-07T11:06:10;13.23;;;4.53;;
71777;SDS011;59609;52.430;4.668;2023-04-07T11:08:41;17.85;;;5.57;;
71777;SDS011;59609;52.430;4.668;2023-04-07T11:11:08;11.15;;;4.82;;
71777;SDS011;59609;52.430;4.668;2023-04-07T11:13:45;13.40;;;5.18;;
71777;SDS011;59609;52.430;4.668;2023-04-07T11:16:12;14.13;;;5.97;;
71777;SDS011;59609;52.430;4.668;2023-04-07T11:18:39;13.98;;;5.40;;
71777;SDS011;59609;52.430;4.668;2023-04-07T11:21:06;13.32;;;5.78;;
71777;SDS011;59609;52.430;4.668;2023-04-07T11:23:42;20.10;;;6.35;;
71777;SDS011;59609;52.430;4.668;2023-04-07T11:26:08;22.13;;;7.30;;
71777;SDS011;59609;52.430;4.668;2023-04-07T11:28:46;21.08;;;6.53;;
71777;SDS011;59609;52.430;4.668;2023-04-07T11:31:20;12.93;;;6.45;;
71777;SDS011;59609;52.430;4.668;2023-04-07T11:33:53;15.90;;;6.00;;
71777;SDS011;59609;52.430;4.668;2023-04-07T11:36:39;15.25;;;6.22;;
71777;SDS011;59609;52.430;4.668;2023-04-07T11:39:08;14.90;;;5.13;;
71777;SDS011;59609;52.430;4.668;2023-04-07T11:41:46;10.18;;;5.10;;
71777;SDS011;59609;52.430;4.668;2023-04-07T11:44:13;14.98;;;5.35;;
71777;SDS011;59609;52.430;4.668;2023-04-07T11:46:57;15.57;;;5.50;;
71777;SDS011;59609;52.430;4.668;2023-04-07T11:49:24;13.32;;;5.05;;
71777;SDS011;59609;52.430;4.668;2023-04-07T11:52:02;10.57;;;5.40;;
71777;SDS011;59609;52.430;4.668;2023-04-07T11:57:06;11.50;;;5.50;;
71777;SDS011;59609;52.430;4.668;2023-04-07T11:59:34;17.20;;;6.43;;
71777;SDS011;59609;52.430;4.668;2023-04-07T12:01:59;22.83;;;6.70;;
71777;SDS011;59609;52.430;4.668;2023-04-07T12:04:25;14.60;;;6.25;;
71777;SDS011;59609;52.430;4.668;2023-04-07T12:06:51;12.18;;;6.22;;
71777;SDS011;59609;52.430;4.668;2023-04-07T12:09:26;10.40;;;5.85;;
71777;SDS011;59609;52.430;4.668;2023-04-07T12:11:53;16.92;;;6.15;;
71777;SDS011;59609;52.430;4.668;2023-04-07T12:14:19;11.25;;;5.05;;
71777;SDS011;59609;52.430;4.668;2023-04-07T12:16:45;10.15;;;4.28;;
71777;SDS011;59609;52.430;4.668;2023-04-07T12:19:10;15.30;;;4.55;;
71777;SDS011;59609;52.430;4.668;2023-04-07T12:21:36;9.98;;;4.72;;
71777;SDS011;59609;52.430;4.668;2023-04-07T12:24:01;10.18;;;4.15;;
71777;SDS011;59609;52.430;4.668;2023-04-07T12:26:27;9.52;;;4.05;;
71777;SDS011;59609;52.430;4.668;2023-04-07T12:28:52;12.23;;;4.68;;
71777;SDS011;59609;52.430;4.668;2023-04-07T12:31:18;15.77;;;4.63;;
71777;SDS011;59609;52.430;4.668;2023-04-07T12:33:44;15.88;;;4.55;;
71777;SDS011;59609;52.430;4.668;2023-04-07T12:36:10;16.65;;;6.00;;
71777;SDS011;59609;52.430;4.668;2023-04-07T12:38:36;16.52;;;6.32;;
71777;SDS011;59609;52.430;4.668;2023-04-07T12:41:01;16.98;;;6.20;;
71777;SDS011;59609;52.430;4.668;2023-04-07T12:43:30;18.58;;;7.68;;
71777;SDS011;59609;52.430;4.668;2023-04-07T12:45:55;17.15;;;6.70;;
71777;SDS011;59609;52.430;4.668;2023-04-07T12:48:21;17.85;;;6.05;;
71777;SDS011;59609;52.430;4.668;2023-04-07T12:50:47;13.80;;;6.20;;
71777;SDS011;59609;52.430;4.668;2023-04-07T12:53:13;19.10;;;6.28;;
71777;SDS011;59609;52.430;4.668;2023-04-07T13:05:22;15.35;;;6.25;;
71777;SDS011;59609;52.430;4.668;2023-04-07T13:07:48;11.43;;;5.68;;
71777;SDS011;59609;52.430;4.668;2023-04-07T13:10:13;12.85;;;5.65;;
71777;SDS011;59609;52.430;4.668;2023-04-07T13:12:38;16.92;;;5.50;;
71777;SDS011;59609;52.430;4.668;2023-04-07T13:15:06;12.85;;;5.50;;
71777;SDS011;59609;52.430;4.668;2023-04-07T13:17:32;13.02;;;5.68;;
71777;SDS011;59609;52.430;4.668;2023-04-07T13:20:00;10.82;;;4.43;;
71777;SDS011;59609;52.430;4.668;2023-04-07T13:22:26;10.18;;;5.25;;
71777;SDS011;59609;52.430;4.668;2023-04-07T13:24:51;10.88;;;5.28;;
71777;SDS011;59609;52.430;4.668;2023-04-07T13:27:17;8.48;;;5.07;;
71777;SDS011;59609;52.430;4.668;2023-04-07T13:29:42;8.18;;;4.40;;
71777;SDS011;59609;52.430;4.668;2023-04-07T13:44:04;12.90;;;5.68;;
71777;SDS011;59609;52.430;4.668;2023-04-07T13:46:30;10.60;;;5.63;;
71777;SDS011;59609;52.430;4.668;2023-04-07T13:48:55;12.00;;;5.78;;
71777;SDS011;59609;52.430;4.668;2023-04-07T13:51:21;13.50;;;6.47;;
71777;SDS011;59609;52.430;4.668;2023-04-07T13:53:46;11.88;;;7.13;;
71777;SDS011;59609;52.430;4.668;2023-04-07T13:56:12;9.43;;;6.22;;
71777;SDS011;59609;52.430;4.668;2023-04-07T13:58:37;15.23;;;6.60;;
71777;SDS011;59609;52.430;4.668;2023-04-07T14:01:02;12.10;;;6.55;;
71777;SDS011;59609;52.430;4.668;2023-04-07T14:03:28;12.27;;;6.47;;
71777;SDS011;59609;52.430;4.668;2023-04-07T14:05:54;12.57;;;6.00;;
71777;SDS011;59609;52.430;4.668;2023-04-07T14:08:24;13.05;;;6.40;;
71777;SDS011;59609;52.430;4.668;2023-04-07T14:10:50;11.27;;;6.65;;
71777;SDS011;59609;52.430;4.668;2023-04-07T14:13:16;8.50;;;5.95;;
71777;SDS011;59609;52.430;4.668;2023-04-07T14:15:41;13.60;;;5.45;;
71777;SDS011;59609;52.430;4.668;2023-04-07T14:18:06;9.23;;;4.90;;
71777;SDS011;59609;52.430;4.668;2023-04-07T14:20:33;10.45;;;5.45;;
71777;SDS011;59609;52.430;4.668;2023-04-07T14:22:58;9.65;;;4.78;;
71777;SDS011;59609;52.430;4.668;2023-04-07T14:25:24;8.85;;;5.20;;
71777;SDS011;59609;52.430;4.668;2023-04-07T14:27:50;12.50;;;6.65;;
71777;SDS011;59609;52.430;4.668;2023-04-07T14:30:16;10.10;;;6.05;;
71777;SDS011;59609;52.430;4.668;2023-04-07T14:32:42;8.05;;;5.75;;
71777;SDS011;59609;52.430;4.668;2023-04-07T14:35:08;9.27;;;5.65;;
71777;SDS011;59609;52.430;4.668;2023-04-07T14:37:33;10.50;;;5.85;;
71777;SDS011;59609;52.430;4.668;2023-04-07T14:40:00;10.65;;;5.97;;
71777;SDS011;59609;52.430;4.668;2023-04-07T14:42:26;9.77;;;5.78;;
71777;SDS011;59609;52.430;4.668;2023-04-07T14:44:53;7.32;;;4.82;;
71777;SDS011;59609;52.430;4.668;2023-04-07T14:47:19;8.88;;;5.18;;
71777;SDS011;59609;52.430;4.668;2023-04-07T14:49:44;11.35;;;5.57;;
71777;SDS011;59609;52.430;4.668;2023-04-07T14:52:10;11.18;;;5.35;;
71777;SDS011;59609;52.430;4.668;2023-04-07T14:54:37;9.27;;;4.95;;
71777;SDS011;59609;52.430;4.668;2023-04-07T14:57:03;10.02;;;6.28;;
71777;SDS011;59609;52.430;4.668;2023-04-07T14:59:28;11.20;;;6.22;;
71777;SDS011;59609;52.430;4.668;2023-04-07T15:01:53;13.75;;;6.55;;
71777;SDS011;59609;52.430;4.668;2023-04-07T15:04:19;12.80;;;6.85;;
71777;SDS011;59609;52.430;4.668;2023-04-07T15:06:44;11.73;;;6.43;;
71777;SDS011;59609;52.430;4.668;2023-04-07T15:09:11;11.35;;;6.45;;
71777;SDS011;59609;52.430;4.668;2023-04-07T15:11:37;11.73;;;7.30;;
71777;SDS011;59609;52.430;4.668;2023-04-07T15:14:02;13.23;;;7.82;;
71777;SDS011;59609;52.430;4.668;2023-04-07T15:16:29;7.32;;;6.38;;
71777;SDS011;59609;52.430;4.668;2023-04-07T15:18:55;9.55;;;5.32;;
71777;SDS011;59609;52.430;4.668;2023-04-07T15:21:21;14.10;;;8.57;;
71777;SDS011;59609;52.430;4.668;2023-04-07T15:23:46;11.32;;;7.20;;
71777;SDS011;59609;52.430;4.668;2023-04-07T15:26:11;11.95;;;6.43;;